createdAt,value
2023-05-09T00:01:11.616Z,10.70
2023-05-09T00:03:38.734Z,11.53
2023-05-09T00:06:07.281Z,13.80
2023-05-09T00:08:34.412Z,12.87
2023-05-09T00:11:02.023Z,10.97
2023-05-09T00:13:28.962Z,10.03
2023-05-09T00:15:57.808Z,8.57
2023-05-09T00:18:24.770Z,11.67
2023-05-09T00:20:51.873Z,8.00
2023-05-09T00:23:19.015Z,10.40
2023-05-09T00:25:46.163Z,8.53
2023-05-09T00:28:13.210Z,8.67
2023-05-09T00:30:39.802Z,8.33
2023-05-09T00:33:06.951Z,7.50
2023-05-09T00:35:35.346Z,10.63
2023-05-09T00:38:02.375Z,13.47
2023-05-09T00:40:29.342Z,19.47
2023-05-09T00:42:58.819Z,9.67
2023-05-09T00:45:26.032Z,9.53
2023-05-09T00:47:53.207Z,7.60
2023-05-09T00:50:20.256Z,6.87
2023-05-09T00:52:47.283Z,8.03
2023-05-09T00:55:15.536Z,10.03
2023-05-09T00:57:42.854Z,7.40
2023-05-09T01:00:15.934Z,8.27
2023-05-09T01:02:43.788Z,8.33
2023-05-09T01:05:11.562Z,9.03
2023-05-09T01:07:42.156Z,6.37
2023-05-09T01:10:15.332Z,7.77
2023-05-09T01:12:53.451Z,6.73
2023-05-09T01:15:25.566Z,11.23
2023-05-09T01:18:11.087Z,9.70
2023-05-09T01:20:40.450Z,7.13
2023-05-09T01:23:13.756Z,7.73
2023-05-09T01:25:56.025Z,8.17
2023-05-09T01:28:41.607Z,7.80
2023-05-09T01:31:09.521Z,12.20
2023-05-09T01:33:38.936Z,8.40
2023-05-09T01:36:08.431Z,9.57
2023-05-09T01:38:37.594Z,11.23
2023-05-09T01:41:06.493Z,12.43
2023-05-09T01:43:34.143Z,13.27
2023-05-09T01:46:01.560Z,12.10
2023-05-09T01:48:30.527Z,11.93
2023-05-09T01:50:58.326Z,9.17
2023-05-09T01:53:26.521Z,12.97
2023-05-09T01:55:53.993Z,8.20
2023-05-09T01:58:21.769Z,7.50
2023-05-09T02:00:49.594Z,7.47
2023-05-09T02:03:16.830Z,8.30
2023-05-09T02:05:44.858Z,8.13
2023-05-09T02:08:12.158Z,7.37
2023-05-09T02:10:39.467Z,8.50
2023-05-09T02:13:07.355Z,10.53
2023-05-09T02:15:34.811Z,10.40
2023-05-09T02:18:01.992Z,9.67
2023-05-09T02:20:29.172Z,12.53
2023-05-09T02:22:56.222Z,8.97
2023-05-09T02:25:23.797Z,13.97
2023-05-09T02:27:52.117Z,12.70
2023-05-09T02:30:23.759Z,9.50
2023-05-09T02:32:52.330Z,8.55
2023-05-09T02:35:20.394Z,10.10
2023-05-09T02:37:48.106Z,7.97
2023-05-09T02:40:15.323Z,10.13
2023-05-09T02:42:42.473Z,8.97
2023-05-09T02:45:11.127Z,8.63
2023-05-09T02:47:38.790Z,8.10
2023-05-09T02:50:06.268Z,9.63
2023-05-09T02:52:33.354Z,9.80
2023-05-09T02:55:00.366Z,7.93
2023-05-09T02:57:27.429Z,6.37
2023-05-09T02:59:54.418Z,6.80
2023-05-09T03:02:21.554Z,8.73
2023-05-09T03:04:48.597Z,7.37
2023-05-09T03:07:15.730Z,6.30
2023-05-09T03:09:42.934Z,7.17
2023-05-09T03:12:09.957Z,7.67
2023-05-09T03:14:37.020Z,6.43
2023-05-09T03:17:04.129Z,7.60
2023-05-09T03:19:31.146Z,10.03
2023-05-09T03:21:58.085Z,10.03
2023-05-09T03:24:27.083Z,12.40
2023-05-09T03:26:54.300Z,8.10
2023-05-09T03:29:21.565Z,8.43
2023-05-09T03:31:48.863Z,9.00
2023-05-09T03:34:16.066Z,8.40
2023-05-09T03:36:46.018Z,7.93
2023-05-09T03:39:13.023Z,7.87
2023-05-09T03:41:40.065Z,9.03
2023-05-09T03:44:07.192Z,7.30
2023-05-09T03:46:34.328Z,9.37
2023-05-09T03:49:01.550Z,10.10
2023-05-09T03:51:28.613Z,7.23
2023-05-09T03:53:55.920Z,6.90
2023-05-09T03:56:22.905Z,6.30
2023-05-09T03:58:50.038Z,5.60
2023-05-09T04:01:16.993Z,7.70
2023-05-09T04:03:44.166Z,9.73
2023-05-09T04:06:11.383Z,6.57
2023-05-09T04:08:38.566Z,6.88
2023-05-09T04:11:06.554Z,7.72
2023-05-09T04:13:34.273Z,8.32
2023-05-09T04:16:02.197Z,7.82
2023-05-09T04:18:29.203Z,9.85
2023-05-09T04:20:56.342Z,9.45
2023-05-09T04:23:24.086Z,11.40
2023-05-09T04:25:54.842Z,11.55
2023-05-09T04:28:21.915Z,13.23
2023-05-09T04:30:48.870Z,14.15
2023-05-09T04:33:16.187Z,13.00
2023-05-09T04:35:43.295Z,13.05
2023-05-09T04:38:10.467Z,13.65
2023-05-09T04:40:37.542Z,15.10
2023-05-09T04:43:04.740Z,15.10
2023-05-09T04:45:32.449Z,14.02
2023-05-09T04:47:59.513Z,14.02
2023-05-09T04:50:26.948Z,17.90
2023-05-09T04:52:54.013Z,16.65
2023-05-09T04:55:21.045Z,14.63
2023-05-09T04:57:48.279Z,18.17
2023-05-09T05:00:17.293Z,17.33
2023-05-09T05:02:44.284Z,14.18
2023-05-09T05:05:12.604Z,14.88
2023-05-09T05:07:39.993Z,14.40
2023-05-09T05:10:07.396Z,13.43
2023-05-09T05:12:34.440Z,9.48
2023-05-09T05:15:01.529Z,8.80
2023-05-09T05:17:30.038Z,10.77
2023-05-09T05:19:57.024Z,6.55
2023-05-09T05:22:24.869Z,7.40
2023-05-09T05:24:51.902Z,6.53
2023-05-09T05:27:19.016Z,6.55
2023-05-09T05:29:46.175Z,5.57
2023-05-09T05:32:13.444Z,6.40
2023-05-09T05:34:40.522Z,6.32
2023-05-09T05:37:07.813Z,6.45
2023-05-09T05:39:34.802Z,5.93
2023-05-09T05:42:01.866Z,6.50
2023-05-09T05:44:28.932Z,6.80
2023-05-09T05:46:56.157Z,6.18
2023-05-09T05:49:25.483Z,9.50
2023-05-09T05:51:52.549Z,10.82
2023-05-09T05:54:19.701Z,5.78
2023-05-09T05:56:46.896Z,6.57
2023-05-09T05:59:13.884Z,8.68
2023-05-09T06:01:41.218Z,8.43
2023-05-09T06:04:08.625Z,10.25
2023-05-09T06:06:35.880Z,5.72
2023-05-09T06:09:03.526Z,4.63
2023-05-09T06:11:30.700Z,3.45
2023-05-09T06:13:57.440Z,4.35
2023-05-09T06:16:26.385Z,7.47
2023-05-09T06:18:55.789Z,7.43
2023-05-09T06:21:23.481Z,8.32
2023-05-09T06:24:04.299Z,8.05
2023-05-09T06:26:33.508Z,4.55
2023-05-09T06:29:00.549Z,6.65
2023-05-09T06:31:27.830Z,6.50
2023-05-09T06:33:54.793Z,4.38
2023-05-09T06:36:25.133Z,4.53
2023-05-09T06:38:52.080Z,5.70
2023-05-09T06:41:20.173Z,5.22
2023-05-09T06:43:47.833Z,7.13
2023-05-09T06:46:15.048Z,4.55
2023-05-09T06:48:42.435Z,4.43
2023-05-09T06:51:09.859Z,5.53
2023-05-09T06:53:36.891Z,4.80
2023-05-09T06:56:04.130Z,4.63
2023-05-09T06:58:31.597Z,6.22
2023-05-09T07:00:58.701Z,6.75
2023-05-09T07:03:26.715Z,3.72
2023-05-09T07:05:53.868Z,5.40
2023-05-09T07:08:20.954Z,5.32
2023-05-09T07:10:48.171Z,5.60
2023-05-09T07:13:40.215Z,5.88
2023-05-09T07:16:09.192Z,3.58
2023-05-09T07:18:47.287Z,6.20
2023-05-09T07:21:47.574Z,5.15
2023-05-09T07:27:52.724Z,4.43
2023-05-09T07:30:22.309Z,3.42
2023-05-09T07:32:53.586Z,9.43
2023-05-09T07:37:54.443Z,5.18
2023-05-09T07:42:57.426Z,2.90
2023-05-09T07:48:09.140Z,6.93
2023-05-09T07:50:52.545Z,4.32
2023-05-09T07:53:21.991Z,6.07
2023-05-09T07:56:07.936Z,4.70
2023-05-09T08:18:12.231Z,2.38
2023-05-09T08:27:53.962Z,3.00
2023-05-09T08:33:24.484Z,2.30
2023-05-09T08:35:58.894Z,2.13
2023-05-09T08:47:15.253Z,2.63
2023-05-09T08:50:06.867Z,2.30
2023-05-09T10:16:42.689Z,3.25
2023-05-09T10:19:10.952Z,7.55
2023-05-09T10:21:39.435Z,2.70
2023-05-09T10:24:09.687Z,4.93
2023-05-09T10:26:38.234Z,3.05
2023-05-09T10:29:08.152Z,5.63
2023-05-09T10:31:37.172Z,2.78
2023-05-09T10:34:06.903Z,2.50
2023-05-09T10:36:33.433Z,5.05
2023-05-09T10:39:00.381Z,5.82
2023-05-09T10:41:26.990Z,3.70
2023-05-09T10:43:55.775Z,3.15
2023-05-09T10:46:23.442Z,7.60
2023-05-09T10:48:50.156Z,2.75
2023-05-09T10:51:17.309Z,2.60
2023-05-09T10:53:45.140Z,3.33
2023-05-09T10:56:29.525Z,2.35
2023-05-09T10:58:56.795Z,3.58
2023-05-09T11:01:49.880Z,3.63
2023-05-09T11:04:17.206Z,2.65
2023-05-09T11:06:44.095Z,2.78
2023-05-09T11:09:29.049Z,4.03
2023-05-09T11:11:55.863Z,2.65
2023-05-09T11:14:32.705Z,5.80
2023-05-09T11:17:00.266Z,3.53
2023-05-09T11:19:45.618Z,2.83
2023-05-09T11:22:28.803Z,9.10
2023-05-09T11:25:01.558Z,3.90
2023-05-09T11:27:29.092Z,3.03
2023-05-09T11:29:57.108Z,4.20
2023-05-09T11:32:33.070Z,4.03
2023-05-09T11:35:27.097Z,3.10
2023-05-09T11:38:00.358Z,3.05
2023-05-09T11:40:28.020Z,5.10
2023-05-09T11:42:58.427Z,2.45
2023-05-09T11:45:27.517Z,4.82
2023-05-09T11:47:54.643Z,2.63
2023-05-09T11:50:21.875Z,2.95
2023-05-09T11:52:48.804Z,2.65
2023-05-09T11:55:20.001Z,3.85
2023-05-09T11:57:49.163Z,4.03
2023-05-09T12:00:18.616Z,3.38
2023-05-09T12:02:46.378Z,2.13
2023-05-09T12:05:17.258Z,5.75
2023-05-09T12:07:44.854Z,2.92
2023-05-09T12:10:13.108Z,5.50
2023-05-09T12:12:46.061Z,11.90
2023-05-09T12:15:13.856Z,3.53
2023-05-09T12:17:44.230Z,3.08
2023-05-09T12:20:11.270Z,3.80
2023-05-09T12:22:38.004Z,3.70
2023-05-09T12:25:08.850Z,4.05
2023-05-09T12:27:35.908Z,6.07
2023-05-09T12:30:04.041Z,5.90
2023-05-09T12:32:33.042Z,5.13
2023-05-09T12:35:03.499Z,4.93
2023-05-09T12:37:31.042Z,7.63
2023-05-09T12:40:05.027Z,3.85
2023-05-09T12:42:35.357Z,7.88
2023-05-09T12:45:02.479Z,3.95
2023-05-09T12:47:29.761Z,2.92
2023-05-09T12:49:59.840Z,4.38
2023-05-09T12:52:26.971Z,3.25
2023-05-09T12:54:53.869Z,7.18
2023-05-09T12:57:23.880Z,3.72
2023-05-09T12:59:50.624Z,8.10
2023-05-09T13:02:17.825Z,2.88
2023-05-09T13:04:44.618Z,4.57
2023-05-09T13:07:11.117Z,3.22
2023-05-09T13:09:53.737Z,2.30
2023-05-09T13:12:20.774Z,3.78
2023-05-09T13:14:47.376Z,4.53
2023-05-09T13:17:13.998Z,2.63
2023-05-09T13:19:40.634Z,9.07
2023-05-09T13:22:07.121Z,6.03
2023-05-09T13:24:33.628Z,3.22
2023-05-09T13:27:00.172Z,4.07
2023-05-09T13:29:26.674Z,2.70
2023-05-09T13:31:53.193Z,2.75
2023-05-09T13:34:19.665Z,5.28
2023-05-09T13:36:46.341Z,5.18
2023-05-09T13:39:13.559Z,4.53
2023-05-09T13:41:40.138Z,4.88
2023-05-09T13:44:06.707Z,4.50
2023-05-09T13:46:33.349Z,4.47
2023-05-09T13:49:00.597Z,3.60
2023-05-09T13:51:27.454Z,3.22
2023-05-09T13:53:54.023Z,2.67
2023-05-09T13:56:20.975Z,4.70
2023-05-09T13:58:47.481Z,4.00
2023-05-09T14:01:14.102Z,4.10
2023-05-09T14:03:40.817Z,3.90
2023-05-09T14:06:09.502Z,3.38
2023-05-09T14:08:36.200Z,2.88
2023-05-09T14:11:03.066Z,3.85
2023-05-09T14:13:32.165Z,3.53
2023-05-09T14:15:58.873Z,5.00
2023-05-09T14:18:25.465Z,6.43
2023-05-09T14:20:52.284Z,3.97
2023-05-09T14:23:19.530Z,1.92
2023-05-09T14:26:00.060Z,7.07
2023-05-09T14:28:27.157Z,3.17
2023-05-09T14:30:53.841Z,4.10
2023-05-09T14:33:20.424Z,5.05
2023-05-09T14:35:47.686Z,3.70
2023-05-09T14:38:14.243Z,3.78
2023-05-09T14:40:41.177Z,2.55
2023-05-09T14:43:09.632Z,3.63
2023-05-09T14:45:36.252Z,3.97
2023-05-09T14:48:03.650Z,4.25
2023-05-09T14:50:30.376Z,4.18
2023-05-09T14:52:57.139Z,3.55
2023-05-09T14:55:39.405Z,5.80
2023-05-09T14:58:06.000Z,5.38
2023-05-09T15:00:34.233Z,3.42
2023-05-09T15:25:19.613Z,3.92
2023-05-09T15:27:50.652Z,3.85
2023-05-09T15:30:17.422Z,5.80
2023-05-09T15:32:44.198Z,6.72
2023-05-09T15:35:11.096Z,4.00
2023-05-09T15:37:37.920Z,4.25
2023-05-09T15:40:04.734Z,5.15
2023-05-09T15:42:31.548Z,4.47
2023-05-09T15:44:58.197Z,6.85
2023-05-09T15:47:24.808Z,4.38
2023-05-09T15:49:51.523Z,3.65
2023-05-09T15:52:23.831Z,4.38
2023-05-09T15:54:50.980Z,2.35
2023-05-09T15:57:18.476Z,3.00
2023-05-09T15:59:45.042Z,3.15
2023-05-09T16:02:12.563Z,4.43
2023-05-09T16:04:42.647Z,4.70
2023-05-09T16:07:09.131Z,3.75
2023-05-09T16:09:35.686Z,6.85
2023-05-09T16:12:02.348Z,5.32
2023-05-09T16:14:28.929Z,4.07
2023-05-09T16:16:56.482Z,8.85
2023-05-09T16:19:23.556Z,6.43
2023-05-09T16:21:50.301Z,2.38
2023-05-09T16:24:17.030Z,2.90
2023-05-09T16:26:43.688Z,6.63
2023-05-09T16:29:10.832Z,3.92
2023-05-09T16:31:37.474Z,4.85
2023-05-09T16:34:04.229Z,59.75
2023-05-09T16:36:32.978Z,6.63
2023-05-09T16:38:59.499Z,3.03
2023-05-09T16:41:26.776Z,6.45
2023-05-09T16:43:56.364Z,3.92
2023-05-09T16:46:24.372Z,2.47
2023-05-09T16:48:51.952Z,4.57
2023-05-09T16:51:18.554Z,5.05
2023-05-09T16:53:45.275Z,3.90
2023-05-09T16:56:12.097Z,3.30
2023-05-09T16:58:44.877Z,2.40
2023-05-09T17:01:18.080Z,8.13
2023-05-09T17:03:47.409Z,3.05
2023-05-09T17:06:15.565Z,3.63
2023-05-09T17:08:42.794Z,3.22
2023-05-09T17:11:09.873Z,5.65
2023-05-09T17:13:36.518Z,4.47
2023-05-09T17:16:03.372Z,2.67
2023-05-09T17:18:37.668Z,2.80
2023-05-09T17:21:04.827Z,2.50
2023-05-09T17:23:31.909Z,3.53
2023-05-09T17:25:59.520Z,3.88
2023-05-09T17:28:26.131Z,2.78
2023-05-09T17:30:52.772Z,20.13
2023-05-09T17:33:19.583Z,3.70
2023-05-09T17:35:49.552Z,5.45
2023-05-09T17:38:16.126Z,4.32
2023-05-09T17:40:43.326Z,5.22
2023-05-09T17:43:10.025Z,2.88
2023-05-09T17:45:36.655Z,3.33
2023-05-09T17:48:03.526Z,4.03
2023-05-09T17:50:31.278Z,5.70
2023-05-09T17:52:58.778Z,3.35
2023-05-09T17:55:25.335Z,5.50
2023-05-09T17:57:52.576Z,4.93
2023-05-09T18:00:19.858Z,4.97
2023-05-09T18:02:48.455Z,3.67
2023-05-09T18:05:15.158Z,4.35
2023-05-09T18:07:41.789Z,3.67
2023-05-09T18:10:09.117Z,3.92
2023-05-09T18:12:37.314Z,6.72
2023-05-09T18:15:05.029Z,3.42
2023-05-09T18:17:31.718Z,17.02
2023-05-09T18:19:58.407Z,4.65
2023-05-09T18:22:25.496Z,3.22
2023-05-09T18:24:52.676Z,6.57
2023-05-09T18:27:19.423Z,4.47
2023-05-09T18:29:47.629Z,4.85
2023-05-09T18:32:18.105Z,8.70
2023-05-09T18:34:44.979Z,10.18
2023-05-09T18:37:11.757Z,16.13
2023-05-09T18:39:38.413Z,18.23
2023-05-09T18:42:06.531Z,20.30
2023-05-09T18:44:34.206Z,12.85
2023-05-09T18:47:01.067Z,10.63
2023-05-09T18:49:27.716Z,5.43
2023-05-09T18:51:55.135Z,6.13
2023-05-09T18:54:21.667Z,6.03
2023-05-09T18:56:48.597Z,5.53
2023-05-09T18:59:16.606Z,10.23
2023-05-09T19:01:44.225Z,9.68
2023-05-09T19:04:11.118Z,13.85
2023-05-09T19:06:37.864Z,14.50
2023-05-09T19:09:04.672Z,17.52
2023-05-09T19:11:31.378Z,12.35
2023-05-09T19:14:01.193Z,8.38
2023-05-09T19:16:28.204Z,5.03
2023-05-09T19:18:58.381Z,4.72
2023-05-09T19:21:25.712Z,5.35
2023-05-09T19:23:52.583Z,6.43
2023-05-09T19:26:19.957Z,6.50
2023-05-09T19:28:46.978Z,7.30
2023-05-09T19:31:14.569Z,5.60
2023-05-09T19:33:42.034Z,6.05
2023-05-09T19:36:08.581Z,6.72
2023-05-09T19:38:35.251Z,25.10
2023-05-09T19:41:01.787Z,21.90
2023-05-09T19:43:28.656Z,31.33
2023-05-09T19:45:55.264Z,30.27
2023-05-09T19:48:21.817Z,23.35
2023-05-09T19:50:48.471Z,18.48
2023-05-09T19:53:14.984Z,14.27
2023-05-09T19:55:43.908Z,14.98
2023-05-09T19:58:10.557Z,18.48
2023-05-09T20:00:38.978Z,16.13
2023-05-09T20:03:05.576Z,15.77
2023-05-09T20:05:32.267Z,10.00
2023-05-09T20:07:58.775Z,11.07
2023-05-09T20:10:25.589Z,16.88
2023-05-09T20:12:53.432Z,11.38
2023-05-09T20:15:20.456Z,11.23
2023-05-09T20:17:47.484Z,13.45
2023-05-09T20:20:14.398Z,13.32
2023-05-09T20:22:41.435Z,13.50
2023-05-09T20:25:36.746Z,14.15
2023-05-09T20:28:40.536Z,9.27
2023-05-09T20:31:07.516Z,16.33
2023-05-09T20:33:34.184Z,10.63
2023-05-09T20:36:01.073Z,13.98
2023-05-09T20:38:27.618Z,16.42
2023-05-09T20:40:54.101Z,9.38
2023-05-09T20:43:20.840Z,17.75
2023-05-09T20:45:47.394Z,19.05
2023-05-09T20:48:14.012Z,16.63
2023-05-09T20:50:40.871Z,19.83
2023-05-09T20:53:07.381Z,18.30
2023-05-09T20:55:33.896Z,21.65
2023-05-09T20:58:01.117Z,22.05
2023-05-09T21:00:28.400Z,19.17
2023-05-09T21:02:58.504Z,21.42
2023-05-09T21:05:25.558Z,19.17
2023-05-09T21:07:52.126Z,25.55
2023-05-09T21:10:18.793Z,21.33
2023-05-09T21:12:45.350Z,21.10
2023-05-09T21:15:12.120Z,19.63
2023-05-09T21:17:38.835Z,23.08
2023-05-09T21:20:06.005Z,27.58
2023-05-09T21:22:32.525Z,25.88
2023-05-09T21:24:59.135Z,23.77
2023-05-09T21:27:25.695Z,24.05
2023-05-09T21:29:52.227Z,25.95
2023-05-09T21:32:18.803Z,17.17
2023-05-09T21:34:47.483Z,16.83
2023-05-09T21:37:14.062Z,16.55
2023-05-09T21:39:40.599Z,14.98
2023-05-09T21:42:07.298Z,15.57
2023-05-09T21:44:34.221Z,15.90
2023-05-09T21:47:00.899Z,12.90
2023-05-09T21:49:29.053Z,15.38
2023-05-09T21:51:56.084Z,12.75
2023-05-09T21:54:22.693Z,14.80
2023-05-09T21:56:49.225Z,11.88
2023-05-09T21:59:17.896Z,16.80
2023-05-09T22:01:45.915Z,19.13
2023-05-09T22:04:12.700Z,13.75
2023-05-09T22:06:39.560Z,15.23
2023-05-09T22:09:06.969Z,10.93
2023-05-09T22:11:33.799Z,12.60
2023-05-09T22:14:00.351Z,17.13
2023-05-09T22:16:27.048Z,19.45
2023-05-09T22:18:53.976Z,11.77
2023-05-09T22:21:20.550Z,14.30
2023-05-09T22:23:49.337Z,13.13
2023-05-09T22:26:16.035Z,16.45
2023-05-09T22:28:42.615Z,15.07
2023-05-09T22:31:09.253Z,13.25
2023-05-09T22:33:35.919Z,17.27
2023-05-09T22:36:02.502Z,14.57
2023-05-09T22:38:29.070Z,17.25
2023-05-09T22:40:55.674Z,16.10
2023-05-09T22:43:22.563Z,12.07
2023-05-09T22:45:49.324Z,11.23
2023-05-09T22:48:15.977Z,14.03
2023-05-09T22:50:42.513Z,10.73
2023-05-09T22:53:09.357Z,13.07
2023-05-09T22:55:36.677Z,10.37
2023-05-09T22:58:03.931Z,9.80
2023-05-09T23:00:30.660Z,10.23
2023-05-09T23:02:57.386Z,13.80
2023-05-09T23:08:48.682Z,9.13
2023-05-09T23:11:15.378Z,9.40
2023-05-09T23:13:42.992Z,10.87
2023-05-09T23:16:09.480Z,7.33
2023-05-09T23:18:36.166Z,8.43
2023-05-09T23:21:02.744Z,11.77
2023-05-09T23:23:29.252Z,5.90
2023-05-09T23:25:55.823Z,6.20
2023-05-09T23:28:25.339Z,8.00
2023-05-09T23:30:53.506Z,9.50
2023-05-09T23:33:20.326Z,6.85
2023-05-09T23:35:47.504Z,9.73
2023-05-09T23:38:13.987Z,9.98
2023-05-09T23:40:44.140Z,8.07
2023-05-09T23:43:11.318Z,6.07
2023-05-09T23:45:37.821Z,7.47
2023-05-09T23:48:04.931Z,6.38
2023-05-09T23:50:31.495Z,8.05
2023-05-09T23:52:58.001Z,6.05
2023-05-09T23:55:24.533Z,9.52
2023-05-09T23:57:51.058Z,7.70
